createdAt,value
2023-04-29T00:01:24.978Z,37.42
2023-04-29T00:03:53.757Z,45.83
2023-04-29T00:06:21.526Z,45.17
2023-04-29T00:08:48.412Z,46.70
2023-04-29T00:11:15.589Z,52.75
2023-04-29T00:13:42.891Z,50.80
2023-04-29T00:16:10.423Z,51.80
2023-04-29T00:18:37.962Z,52.28
2023-04-29T00:21:08.452Z,51.03
2023-04-29T00:23:35.412Z,41.40
2023-04-29T00:26:02.324Z,51.55
2023-04-29T00:28:29.323Z,51.75
2023-04-29T00:30:56.605Z,46.78
2023-04-29T00:33:23.549Z,50.92
2023-04-29T00:35:51.044Z,48.85
2023-04-29T00:38:17.963Z,56.90
2023-04-29T00:40:45.341Z,52.55
2023-04-29T00:43:12.720Z,51.58
2023-04-29T00:45:40.393Z,50.92
2023-04-29T00:48:07.926Z,50.20
2023-04-29T00:50:34.983Z,48.33
2023-04-29T00:53:02.141Z,49.50
2023-04-29T00:55:29.775Z,49.05
2023-04-29T00:57:57.400Z,49.42
2023-04-29T01:00:24.885Z,50.47
2023-04-29T01:02:54.303Z,44.20
2023-04-29T01:05:21.134Z,46.10
2023-04-29T01:08:06.930Z,42.58
2023-04-29T01:10:44.900Z,43.67
2023-04-29T01:13:21.570Z,44.42
2023-04-29T01:16:06.369Z,43.03
2023-04-29T01:18:41.296Z,38.38
2023-04-29T01:21:08.130Z,38.97
2023-04-29T01:23:35.310Z,41.50
2023-04-29T01:26:03.295Z,45.97
2023-04-29T01:28:47.974Z,37.45
2023-04-29T01:31:28.264Z,46.05
2023-04-29T01:34:32.531Z,45.53
2023-04-29T01:37:18.540Z,40.50
2023-04-29T01:40:10.553Z,43.58
2023-04-29T01:43:03.413Z,47.28
2023-04-29T01:45:34.069Z,43.15
2023-04-29T01:48:01.876Z,48.83
2023-04-29T01:50:28.715Z,53.13
2023-04-29T01:52:55.724Z,48.13
2023-04-29T01:55:22.947Z,56.08
2023-04-29T01:57:49.831Z,57.38
2023-04-29T02:00:16.639Z,47.58
2023-04-29T02:02:43.658Z,58.28
2023-04-29T02:05:11.102Z,49.25
2023-04-29T02:07:38.058Z,51.60
2023-04-29T02:10:05.834Z,59.78
2023-04-29T02:12:32.948Z,51.75
2023-04-29T02:15:00.337Z,63.95
2023-04-29T02:17:27.527Z,55.80
2023-04-29T02:19:57.405Z,66.18
2023-04-29T02:24:52.015Z,62.40
2023-04-29T02:27:19.028Z,58.17
2023-04-29T02:29:45.698Z,52.92
2023-04-29T02:32:15.356Z,53.10
2023-04-29T02:37:09.147Z,49.60
2023-04-29T02:39:36.190Z,56.95
2023-04-29T02:42:03.227Z,37.88
2023-04-29T02:44:31.397Z,39.10
2023-04-29T02:46:58.407Z,50.85
2023-04-29T02:49:25.201Z,49.78
2023-04-29T02:51:52.211Z,46.05
2023-04-29T02:54:19.452Z,50.15
2023-04-29T02:56:46.422Z,37.35
2023-04-29T02:59:13.375Z,40.15
2023-04-29T03:01:40.603Z,40.25
2023-04-29T03:04:07.838Z,34.95
2023-04-29T03:06:34.986Z,36.63
2023-04-29T03:09:02.122Z,33.13
2023-04-29T03:11:29.022Z,42.60
2023-04-29T03:13:56.384Z,53.33
2023-04-29T03:16:23.285Z,47.90
2023-04-29T03:18:50.322Z,47.83
2023-04-29T03:21:17.652Z,56.85
2023-04-29T03:23:44.846Z,53.40
2023-04-29T03:26:12.110Z,52.70
2023-04-29T03:28:39.161Z,55.20
2023-04-29T03:31:06.233Z,53.15
2023-04-29T03:33:33.340Z,53.72
2023-04-29T03:36:00.704Z,51.40
2023-04-29T03:38:27.929Z,57.28
2023-04-29T03:40:54.868Z,49.88
2023-04-29T03:43:22.022Z,43.67
2023-04-29T03:45:48.924Z,49.70
2023-04-29T03:48:16.114Z,54.42
2023-04-29T03:50:43.109Z,56.83
2023-04-29T03:53:11.871Z,58.00
2023-04-29T03:55:38.846Z,54.63
2023-04-29T03:58:06.687Z,63.17
2023-04-29T04:00:33.920Z,56.53
2023-04-29T04:03:05.016Z,52.38
2023-04-29T04:05:32.778Z,59.20
2023-04-29T04:08:02.608Z,56.22
2023-04-29T04:12:57.128Z,49.00
2023-04-29T04:15:24.282Z,49.45
2023-04-29T04:17:51.281Z,55.75
2023-04-29T04:20:18.319Z,49.95
2023-04-29T04:22:45.309Z,46.40
2023-04-29T04:25:12.376Z,49.00
2023-04-29T04:27:39.382Z,46.53
2023-04-29T04:30:06.803Z,50.72
2023-04-29T04:32:34.545Z,42.42
2023-04-29T04:35:01.582Z,59.17
2023-04-29T04:37:28.632Z,58.92
2023-04-29T04:39:55.681Z,52.08
2023-04-29T04:42:23.235Z,40.35
2023-04-29T04:44:49.980Z,49.75
2023-04-29T04:47:17.351Z,46.50
2023-04-29T04:49:44.418Z,46.70
2023-04-29T04:52:11.857Z,43.50
2023-04-29T04:54:38.565Z,47.92
2023-04-29T04:57:06.083Z,47.53
2023-04-29T04:59:33.727Z,44.45
2023-04-29T05:02:00.755Z,44.70
2023-04-29T05:04:27.844Z,44.67
2023-04-29T05:06:55.038Z,50.30
2023-04-29T05:09:23.245Z,47.50
2023-04-29T05:11:50.159Z,45.45
2023-04-29T05:14:18.060Z,43.47
2023-04-29T05:16:46.496Z,39.60
2023-04-29T05:19:13.616Z,43.45
2023-04-29T05:21:41.109Z,53.90
2023-04-29T05:24:08.558Z,48.53
2023-04-29T05:26:36.415Z,35.05
2023-04-29T05:29:03.482Z,37.03
2023-04-29T05:31:32.436Z,45.30
2023-04-29T05:33:59.531Z,43.47
2023-04-29T05:36:27.938Z,45.28
2023-04-29T05:38:57.134Z,40.30
2023-04-29T05:41:25.011Z,36.70
2023-04-29T05:43:52.079Z,44.72
2023-04-29T05:46:20.472Z,44.08
2023-04-29T05:48:47.563Z,48.15
2023-04-29T05:51:14.630Z,53.33
2023-04-29T05:53:41.648Z,40.97
2023-04-29T05:56:08.718Z,52.50
2023-04-29T05:58:36.604Z,50.63
2023-04-29T06:01:03.631Z,43.78
2023-04-29T06:03:31.327Z,45.78
2023-04-29T06:05:59.100Z,43.50
2023-04-29T06:08:26.741Z,41.83
2023-04-29T06:10:53.639Z,44.58
2023-04-29T06:13:20.860Z,39.22
2023-04-29T06:15:47.841Z,35.00
2023-04-29T06:18:14.793Z,27.95
2023-04-29T06:20:41.907Z,30.65
2023-04-29T06:23:08.926Z,21.33
2023-04-29T06:25:35.934Z,17.05
2023-04-29T06:28:04.405Z,29.23
2023-04-29T06:30:31.267Z,17.55
2023-04-29T06:32:58.390Z,22.02
2023-04-29T06:35:25.739Z,25.05
2023-04-29T06:37:53.193Z,28.50
2023-04-29T06:40:20.369Z,33.58
2023-04-29T06:42:47.497Z,36.17
2023-04-29T06:45:14.454Z,34.80
2023-04-29T06:47:41.474Z,43.45
2023-04-29T06:50:09.757Z,51.15
2023-04-29T06:52:36.760Z,42.25
2023-04-29T06:55:04.957Z,38.25
2023-04-29T06:57:32.178Z,33.35
2023-04-29T06:59:58.957Z,39.60
2023-04-29T07:02:26.043Z,31.90
2023-04-29T07:04:52.942Z,45.33
2023-04-29T07:07:19.950Z,31.67
2023-04-29T07:09:46.978Z,28.30
2023-04-29T07:12:13.939Z,38.22
2023-04-29T07:14:41.347Z,26.38
2023-04-29T07:17:08.084Z,20.10
2023-04-29T07:19:35.244Z,31.85
2023-04-29T07:22:02.810Z,23.38
2023-04-29T07:24:32.950Z,26.52
2023-04-29T07:27:02.806Z,25.85
2023-04-29T07:31:57.148Z,25.55
2023-04-29T07:34:24.386Z,23.23
2023-04-29T07:36:51.374Z,23.15
2023-04-29T07:39:18.520Z,26.80
2023-04-29T07:41:45.940Z,23.75
2023-04-29T07:44:12.938Z,40.33
2023-04-29T07:46:40.087Z,31.20
2023-04-29T07:49:07.138Z,23.90
2023-04-29T07:51:34.122Z,30.98
2023-04-29T07:54:03.263Z,22.30
2023-04-29T07:56:32.317Z,20.40
2023-04-29T07:59:01.223Z,28.00
2023-04-29T08:01:28.554Z,25.30
2023-04-29T08:03:55.860Z,27.80
2023-04-29T08:06:23.936Z,28.98
2023-04-29T08:08:52.784Z,29.27
2023-04-29T08:11:20.839Z,31.67
2023-04-29T08:13:48.722Z,26.20
2023-04-29T08:16:15.895Z,23.38
2023-04-29T08:18:42.981Z,34.72
2023-04-29T08:21:11.698Z,23.88
2023-04-29T08:23:39.911Z,20.75
2023-04-29T08:26:06.760Z,33.55
2023-04-29T08:28:33.758Z,22.08
2023-04-29T08:31:00.863Z,24.25
2023-04-29T08:33:28.583Z,19.92
2023-04-29T08:36:00.267Z,22.63
2023-04-29T08:38:27.944Z,20.23
2023-04-29T08:40:54.808Z,26.73
2023-04-29T08:43:23.282Z,30.50
2023-04-29T08:45:50.742Z,27.25
2023-04-29T08:48:18.749Z,22.95
2023-04-29T08:50:46.179Z,17.35
2023-04-29T08:53:14.559Z,23.08
2023-04-29T08:55:46.749Z,28.35
2023-04-29T08:58:14.835Z,37.25
2023-04-29T09:00:43.396Z,30.55
2023-04-29T09:03:21.629Z,33.42
2023-04-29T09:05:53.125Z,20.13
2023-04-29T09:08:24.648Z,26.52
2023-04-29T09:10:55.570Z,27.75
2023-04-29T09:13:27.879Z,23.77
2023-04-29T09:15:55.449Z,23.73
2023-04-29T09:18:44.376Z,26.25
2023-04-29T09:21:14.243Z,24.43
2023-04-29T09:23:41.604Z,34.13
2023-04-29T09:26:08.490Z,20.25
2023-04-29T09:28:35.569Z,19.95
2023-04-29T09:31:08.118Z,20.98
2023-04-29T09:33:55.768Z,26.83
2023-04-29T09:36:44.138Z,18.35
2023-04-29T09:39:17.377Z,22.48
2023-04-29T09:41:50.599Z,25.17
2023-04-29T09:44:17.860Z,22.58
2023-04-29T09:46:57.210Z,25.65
2023-04-29T09:49:26.127Z,21.00
2023-04-29T09:51:57.600Z,23.23
2023-04-29T09:54:31.154Z,20.08
2023-04-29T09:56:59.623Z,31.08
2023-04-29T09:59:26.871Z,24.75
2023-04-29T10:01:56.104Z,28.80
2023-04-29T10:04:27.889Z,21.25
2023-04-29T10:06:56.407Z,20.27
2023-04-29T10:09:24.595Z,20.50
2023-04-29T10:11:53.523Z,19.05
2023-04-29T10:14:24.932Z,19.83
2023-04-29T10:17:10.683Z,24.42
2023-04-29T10:19:58.566Z,25.02
2023-04-29T10:22:44.006Z,26.13
2023-04-29T10:25:12.510Z,27.70
2023-04-29T10:27:42.959Z,22.60
2023-04-29T10:30:14.095Z,31.92
2023-04-29T10:32:50.377Z,20.75
2023-04-29T10:35:20.291Z,20.33
2023-04-29T10:37:48.647Z,20.50
2023-04-29T10:40:27.962Z,27.90
2023-04-29T10:42:55.692Z,23.15
2023-04-29T10:45:31.737Z,22.85
2023-04-29T10:48:11.796Z,23.25
2023-04-29T10:50:48.775Z,18.83
2023-04-29T10:53:20.058Z,20.60
2023-04-29T10:55:56.994Z,24.75
2023-04-29T10:58:43.022Z,18.73
2023-04-29T11:01:15.371Z,20.23
2023-04-29T11:03:55.945Z,19.73
2023-04-29T11:06:39.529Z,27.33
2023-04-29T11:09:14.410Z,22.88
2023-04-29T11:11:43.518Z,23.17
2023-04-29T11:14:12.445Z,20.23
2023-04-29T11:16:49.248Z,18.27
2023-04-29T11:19:17.466Z,18.35
2023-04-29T11:21:46.975Z,18.38
2023-04-29T11:24:16.015Z,15.88
2023-04-29T11:26:44.300Z,17.23
2023-04-29T11:29:11.172Z,19.42
2023-04-29T11:31:39.567Z,16.95
2023-04-29T11:34:07.503Z,15.38
2023-04-29T11:36:35.807Z,21.20
2023-04-29T11:39:04.236Z,15.73
2023-04-29T11:41:31.791Z,17.85
2023-04-29T11:44:00.281Z,17.50
2023-04-29T11:46:31.043Z,21.92
2023-04-29T11:49:00.202Z,15.93
2023-04-29T11:51:28.544Z,14.80
2023-04-29T11:53:57.832Z,19.63
2023-04-29T11:56:25.859Z,19.55
2023-04-29T11:58:58.289Z,17.10
2023-04-29T12:01:27.107Z,16.20
2023-04-29T12:04:00.037Z,16.35
2023-04-29T12:06:30.497Z,16.60
2023-04-29T12:09:00.270Z,16.52
2023-04-29T12:11:28.936Z,14.68
2023-04-29T12:13:58.047Z,14.48
2023-04-29T12:16:25.739Z,17.77
2023-04-29T12:18:53.835Z,17.75
2023-04-29T12:21:23.152Z,15.60
2023-04-29T12:23:51.623Z,23.92
2023-04-29T12:26:21.061Z,16.00
2023-04-29T12:28:53.857Z,14.10
2023-04-29T12:31:21.298Z,14.73
2023-04-29T12:33:49.306Z,15.52
2023-04-29T12:36:19.550Z,14.68
2023-04-29T12:38:48.783Z,18.73
2023-04-29T12:41:18.642Z,22.27
2023-04-29T12:43:46.440Z,14.23
2023-04-29T12:46:14.757Z,20.70
2023-04-29T12:48:43.496Z,14.23
2023-04-29T12:51:11.585Z,15.63
2023-04-29T12:53:39.096Z,16.88
2023-04-29T12:56:06.798Z,15.13
2023-04-29T12:58:36.929Z,14.65
2023-04-29T13:01:03.729Z,28.38
2023-04-29T13:03:30.877Z,17.38
2023-04-29T13:05:59.067Z,17.48
2023-04-29T13:08:25.961Z,17.58
2023-04-29T13:10:53.701Z,14.57
2023-04-29T13:13:20.681Z,13.57
2023-04-29T13:15:49.313Z,13.73
2023-04-29T13:18:16.761Z,17.88
2023-04-29T13:20:43.667Z,14.18
2023-04-29T13:23:12.268Z,16.52
2023-04-29T13:25:39.381Z,16.60
2023-04-29T13:28:07.386Z,13.68
2023-04-29T13:30:34.543Z,18.73
2023-04-29T13:33:08.761Z,21.63
2023-04-29T13:35:40.417Z,15.65
2023-04-29T13:38:08.259Z,14.82
2023-04-29T13:40:39.368Z,16.00
2023-04-29T13:43:09.689Z,15.40
2023-04-29T13:45:41.316Z,15.38
2023-04-29T13:48:24.668Z,15.68
2023-04-29T13:53:51.224Z,18.90
2023-04-29T13:57:05.059Z,16.23
2023-04-29T13:59:39.406Z,21.25
2023-04-29T14:04:22.116Z,15.70
2023-04-29T14:06:49.330Z,14.93
2023-04-29T14:09:16.926Z,14.35
2023-04-29T14:11:43.964Z,13.88
2023-04-29T14:14:10.910Z,13.48
2023-04-29T14:16:37.983Z,14.85
2023-04-29T14:19:06.267Z,14.00
2023-04-29T14:21:33.809Z,14.43
2023-04-29T14:24:02.537Z,15.55
2023-04-29T14:26:30.149Z,15.40
2023-04-29T14:29:00.589Z,14.88
2023-04-29T14:31:28.428Z,15.55
2023-04-29T14:33:59.267Z,15.15
2023-04-29T14:36:26.738Z,19.48
2023-04-29T14:38:54.000Z,15.02
2023-04-29T14:41:23.868Z,21.40
2023-04-29T14:43:51.809Z,16.63
2023-04-29T14:46:19.210Z,14.30
2023-04-29T14:48:46.338Z,12.95
2023-04-29T14:51:13.433Z,13.48
2023-04-29T14:53:40.444Z,13.57
2023-04-29T14:56:08.309Z,12.75
2023-04-29T14:58:35.366Z,13.23
2023-04-29T15:01:02.058Z,13.73
2023-04-29T15:03:29.211Z,16.30
2023-04-29T15:05:56.311Z,14.27
2023-04-29T15:08:24.538Z,14.55
2023-04-29T15:10:51.542Z,14.63
2023-04-29T15:13:18.560Z,14.90
2023-04-29T15:15:45.665Z,13.50
2023-04-29T15:18:12.669Z,13.88
2023-04-29T15:20:39.617Z,13.90
2023-04-29T15:23:08.696Z,15.18
2023-04-29T15:25:36.353Z,15.20
2023-04-29T15:28:07.918Z,14.07
2023-04-29T15:30:35.617Z,19.05
2023-04-29T15:33:02.772Z,16.02
2023-04-29T15:35:29.624Z,18.58
2023-04-29T15:37:59.203Z,13.73
2023-04-29T15:42:53.226Z,13.48
2023-04-29T15:45:20.266Z,15.80
2023-04-29T15:47:50.671Z,18.15
2023-04-29T15:50:18.589Z,14.55
2023-04-29T15:52:45.633Z,14.50
2023-04-29T15:55:12.653Z,14.20
2023-04-29T15:57:41.367Z,14.88
2023-04-29T16:00:09.013Z,31.25
2023-04-29T16:02:36.013Z,18.67
2023-04-29T16:05:03.562Z,12.98
2023-04-29T16:07:34.754Z,14.20
2023-04-29T16:10:02.297Z,16.30
2023-04-29T16:12:29.413Z,12.95
2023-04-29T16:14:56.323Z,14.93
2023-04-29T16:17:23.495Z,14.23
2023-04-29T16:19:50.449Z,15.90
2023-04-29T16:22:18.422Z,16.15
2023-04-29T16:24:47.738Z,14.00
2023-04-29T16:27:16.227Z,14.75
2023-04-29T16:29:43.301Z,14.18
2023-04-29T16:32:10.173Z,14.40
2023-04-29T16:34:38.092Z,14.15
2023-04-29T16:37:12.229Z,13.95
2023-04-29T16:39:39.956Z,16.98
2023-04-29T16:42:07.569Z,13.45
2023-04-29T16:44:34.534Z,14.05
2023-04-29T16:47:02.656Z,37.58
2023-04-29T16:49:30.752Z,14.65
2023-04-29T16:51:57.996Z,13.43
2023-04-29T16:54:25.334Z,12.25
2023-04-29T16:56:52.162Z,13.70
2023-04-29T16:59:19.256Z,12.80
2023-04-29T17:01:46.550Z,14.40
2023-04-29T17:04:13.439Z,12.52
2023-04-29T17:06:47.517Z,14.35
2023-04-29T17:09:15.774Z,14.70
2023-04-29T17:11:42.656Z,14.70
2023-04-29T17:14:09.674Z,13.75
2023-04-29T17:16:36.984Z,16.58
2023-04-29T17:19:03.860Z,15.02
2023-04-29T17:21:32.420Z,17.55
2023-04-29T17:23:59.544Z,21.35
2023-04-29T17:26:27.442Z,15.32
2023-04-29T17:28:54.495Z,15.27
2023-04-29T17:31:25.290Z,15.45
2023-04-29T17:34:04.946Z,16.67
2023-04-29T17:38:59.859Z,16.20
2023-04-29T17:41:26.970Z,13.55
2023-04-29T17:43:53.945Z,15.20
2023-04-29T17:46:21.218Z,14.88
2023-04-29T17:48:48.533Z,16.35
2023-04-29T17:51:15.506Z,14.55
2023-04-29T17:53:42.581Z,18.45
2023-04-29T17:56:09.632Z,16.58
2023-04-29T17:58:36.613Z,15.65
2023-04-29T18:01:05.895Z,16.58
2023-04-29T18:03:33.099Z,15.80
2023-04-29T18:06:00.346Z,17.80
2023-04-29T18:08:27.270Z,16.27
2023-04-29T18:10:54.354Z,19.33
2023-04-29T18:13:21.338Z,16.13
2023-04-29T18:15:48.753Z,17.85
2023-04-29T18:18:16.705Z,15.57
2023-04-29T18:20:44.490Z,15.63
2023-04-29T18:23:13.893Z,21.17
2023-04-29T18:25:41.165Z,16.88
2023-04-29T18:30:40.642Z,16.52
2023-04-29T18:33:07.912Z,16.15
2023-04-29T18:35:35.036Z,17.75
2023-04-29T18:38:02.430Z,17.67
2023-04-29T18:40:29.131Z,16.58
2023-04-29T18:42:56.169Z,17.90
2023-04-29T18:45:24.059Z,19.75
2023-04-29T18:47:51.165Z,20.95
2023-04-29T18:50:18.298Z,17.05
2023-04-29T18:52:44.963Z,17.88
2023-04-29T18:55:13.392Z,17.60
2023-04-29T18:57:40.616Z,17.15
2023-04-29T19:00:08.477Z,17.17
2023-04-29T19:02:36.012Z,22.35
2023-04-29T19:05:05.872Z,17.17
2023-04-29T19:07:34.325Z,17.08
2023-04-29T19:10:02.485Z,17.05
2023-04-29T19:12:29.381Z,17.15
2023-04-29T19:14:56.472Z,19.23
2023-04-29T19:17:24.348Z,18.00
2023-04-29T19:19:51.405Z,18.13
2023-04-29T19:22:18.850Z,26.85
2023-04-29T19:24:46.241Z,19.05
2023-04-29T19:27:13.386Z,20.27
2023-04-29T19:29:40.118Z,17.83
2023-04-29T19:32:07.029Z,28.75
2023-04-29T19:34:34.047Z,20.00
2023-04-29T19:37:01.117Z,19.52
2023-04-29T19:39:28.842Z,18.33
2023-04-29T19:41:56.326Z,23.38
2023-04-29T19:44:23.177Z,19.55
2023-04-29T19:46:51.453Z,21.55
2023-04-29T19:49:20.743Z,20.63
2023-04-29T19:51:47.579Z,21.23
2023-04-29T19:54:14.588Z,20.85
2023-04-29T19:56:41.601Z,21.23
2023-04-29T19:59:08.666Z,20.25
2023-04-29T20:01:38.882Z,23.63
2023-04-29T20:04:06.584Z,23.77
2023-04-29T20:06:35.053Z,19.05
2023-04-29T20:09:02.113Z,19.13
2023-04-29T20:11:29.283Z,20.00
2023-04-29T20:13:56.299Z,29.05
2023-04-29T20:16:23.534Z,24.20
2023-04-29T20:18:51.563Z,37.42
2023-04-29T20:21:18.678Z,26.25
2023-04-29T20:23:46.162Z,23.73
2023-04-29T20:26:13.532Z,19.92
2023-04-29T20:28:40.681Z,20.45
2023-04-29T20:31:08.578Z,24.48
2023-04-29T20:33:35.808Z,26.73
2023-04-29T20:36:06.647Z,25.88
2023-04-29T20:38:35.181Z,29.55
2023-04-29T20:41:03.413Z,19.70
2023-04-29T20:43:30.472Z,21.77
2023-04-29T20:45:58.433Z,19.08
2023-04-29T20:48:25.836Z,24.00
2023-04-29T20:50:52.667Z,20.85
2023-04-29T20:53:19.623Z,20.67
2023-04-29T20:55:46.755Z,19.63
2023-04-29T20:58:15.590Z,20.52
2023-04-29T21:00:42.456Z,25.42
2023-04-29T21:03:10.341Z,19.95
2023-04-29T21:05:38.247Z,19.90
2023-04-29T21:08:05.960Z,26.85
2023-04-29T21:10:33.971Z,22.80
2023-04-29T21:13:01.194Z,17.75
2023-04-29T21:15:29.358Z,24.05
2023-04-29T21:17:56.750Z,18.15
2023-04-29T21:20:23.881Z,31.73
2023-04-29T21:22:50.760Z,19.23
2023-04-29T21:25:18.076Z,22.10
2023-04-29T21:27:45.061Z,25.17
2023-04-29T21:30:12.144Z,22.58
2023-04-29T21:32:39.152Z,19.88
2023-04-29T21:35:06.796Z,24.00
2023-04-29T21:37:34.032Z,20.92
2023-04-29T21:40:00.982Z,26.98
2023-04-29T21:42:28.258Z,23.83
2023-04-29T21:45:03.223Z,20.70
2023-04-29T21:47:30.780Z,29.20
2023-04-29T21:49:58.849Z,19.40
2023-04-29T21:52:25.734Z,25.90
2023-04-29T21:54:52.693Z,22.17
2023-04-29T21:57:26.338Z,22.60
2023-04-29T21:59:58.982Z,28.17
2023-04-29T22:02:27.692Z,23.85
2023-04-29T22:04:55.563Z,28.92
2023-04-29T22:07:23.189Z,22.40
2023-04-29T22:09:50.092Z,29.98
2023-04-29T22:12:18.815Z,22.90
2023-04-29T22:14:46.496Z,29.88
2023-04-29T22:17:14.817Z,24.48
2023-04-29T22:19:41.580Z,24.17
2023-04-29T22:22:09.349Z,30.20
2023-04-29T22:24:36.068Z,29.95
2023-04-29T22:27:03.674Z,20.75
2023-04-29T22:29:30.441Z,26.13
2023-04-29T22:31:57.297Z,27.70
2023-04-29T22:34:24.401Z,20.55
2023-04-29T22:36:51.387Z,22.98
2023-04-29T22:39:18.659Z,27.63
2023-04-29T22:41:45.510Z,23.17
2023-04-29T22:44:12.622Z,28.73
2023-04-29T22:46:39.522Z,22.42
2023-04-29T22:49:06.663Z,27.98
2023-04-29T22:51:33.628Z,25.38
2023-04-29T22:54:01.473Z,26.63
2023-04-29T22:56:28.959Z,28.73
2023-04-29T22:58:56.023Z,24.00
2023-04-29T23:01:23.112Z,28.92
2023-04-29T23:03:50.118Z,27.50
2023-04-29T23:06:17.312Z,23.90
2023-04-29T23:08:44.636Z,33.88
2023-04-29T23:11:12.097Z,28.95
2023-04-29T23:13:39.450Z,32.83
2023-04-29T23:16:09.227Z,32.47
2023-04-29T23:18:37.757Z,35.92
2023-04-29T23:21:04.965Z,26.77
2023-04-29T23:23:31.753Z,28.70
2023-04-29T23:25:58.807Z,31.58
2023-04-29T23:28:25.892Z,36.15
2023-04-29T23:30:54.342Z,29.98
2023-04-29T23:33:22.711Z,33.33
2023-04-29T23:35:53.615Z,29.80
2023-04-29T23:38:20.680Z,33.80
2023-04-29T23:40:48.561Z,29.10
2023-04-29T23:43:16.377Z,24.38
2023-04-29T23:45:47.155Z,25.05
2023-04-29T23:48:22.316Z,27.20
2023-04-29T23:50:49.385Z,20.50
2023-04-29T23:53:24.191Z,26.85
2023-04-29T23:56:13.853Z,24.70
2023-04-29T23:59:02.604Z,24.33
